NKS439 SBGL-SBRJ
Flight info
| Callsign | NKS439 |
|---|---|
| Flight time | 0h -21m |
| Altitude | 15000 |
| Route | SIDUR DCT ASALU |
| Aircraft | A319/M-SDE3FGHIRWY/LB1 |
Departure
| Time | 2026-05-05 16:57 |
|---|---|
| Airport | Rio Galeão – Tom Jobim International Airport (SBGL) |
Arrival
| Time | 2026-05-05 16:35 |
|---|---|
| Airport | Santos Dumont Airport (SBRJ) |
| Time | Latitude | Longitude | Altitude | Speed | Heading |
|---|---|---|---|---|---|
| 2026-05-05 16:35 | -22.81610 | -43.24632 | 22 ft | 0 kts | 11° |
| 2026-05-05 16:45 | -22.81614 | -43.24633 | 22 ft | 3 kts | 11° |
| 2026-05-05 16:45 | -22.81640 | -43.24639 | 22 ft | 4 kts | 12° |
| 2026-05-05 16:46 | -22.81666 | -43.24644 | 26 ft | 4 kts | 355° |
| 2026-05-05 16:46 | -22.81690 | -43.24636 | 26 ft | 4 kts | 318° |
| 2026-05-05 16:46 | -22.81698 | -43.24628 | 23 ft | 0 kts | 306° |
| 2026-05-05 16:50 | -22.81697 | -43.24630 | 23 ft | 2 kts | 306° |
| 2026-05-05 16:50 | -22.81693 | -43.24635 | 24 ft | 0 kts | 306° |
| 2026-05-05 16:51 | -22.81688 | -43.24641 | 22 ft | 2 kts | 306° |
| 2026-05-05 16:51 | -22.81673 | -43.24664 | 25 ft | 5 kts | 306° |
| 2026-05-05 16:51 | -22.81645 | -43.24709 | 22 ft | 10 kts | 304° |
| 2026-05-05 16:52 | -22.81594 | -43.24790 | 22 ft | 15 kts | 304° |
| 2026-05-05 16:52 | -22.81522 | -43.24879 | 22 ft | 17 kts | 310° |
| 2026-05-05 16:52 | -22.81457 | -43.24997 | 22 ft | 20 kts | 299° |
| 2026-05-05 16:52 | -22.81375 | -43.25128 | 22 ft | 22 kts | 319° |
| 2026-05-05 16:53 | -22.81274 | -43.25267 | 22 ft | 25 kts | 309° |
| 2026-05-05 16:53 | -22.81126 | -43.25375 | 22 ft | 27 kts | 345° |
| 2026-05-05 16:53 | -22.80950 | -43.25408 | 22 ft | 25 kts | 302° |
| 2026-05-05 16:53 | -22.80878 | -43.25569 | 27 ft | 24 kts | 314° |
| 2026-05-05 16:54 | -22.80723 | -43.25508 | 24 ft | 27 kts | 36° |
| 2026-05-05 16:54 | -22.80572 | -43.25463 | 30 ft | 17 kts | 309° |
| 2026-05-05 16:54 | -22.80496 | -43.25555 | 31 ft | 18 kts | 325° |
| 2026-05-05 16:54 | -22.80388 | -43.25614 | 29 ft | 14 kts | 3° |
| 2026-05-05 16:55 | -22.80340 | -43.25588 | 27 ft | 2 kts | 37° |
| 2026-05-05 16:55 | -22.80316 | -43.25567 | 26 ft | 7 kts | 37° |
| 2026-05-05 16:55 | -22.80257 | -43.25518 | 27 ft | 0 kts | 38° |
| 2026-05-05 16:55 | -22.80251 | -43.25513 | 27 ft | 0 kts | 38° |
| 2026-05-05 16:56 | -22.80233 | -43.25498 | 28 ft | 11 kts | 38° |
| 2026-05-05 16:56 | -22.80147 | -43.25352 | 27 ft | 52 kts | 73° |
| 2026-05-05 16:56 | -22.79958 | -43.24618 | 33 ft | 146 kts | 74° |
| 2026-05-05 16:56 | -22.79638 | -43.23379 | 438 ft | 181 kts | 72° |
| 2026-05-05 16:57 | -22.79292 | -43.22028 | 1290 ft | 189 kts | 76° |
| 2026-05-05 16:57 | -22.78950 | -43.20636 | 2270 ft | 196 kts | 75° |
| 2026-05-05 16:57 | -22.78613 | -43.19166 | 3191 ft | 206 kts | 75° |
| 2026-05-05 16:57 | -22.78290 | -43.17644 | 4222 ft | 212 kts | 76° |
| 2026-05-05 16:58 | -22.77953 | -43.16074 | 5307 ft | 216 kts | 66° |
| 2026-05-05 16:58 | -22.77008 | -43.14813 | 6396 ft | 217 kts | 45° |
| 2026-05-05 16:58 | -22.75934 | -43.13682 | 7242 ft | 218 kts | 45° |
| 2026-05-05 16:58 | -22.74773 | -43.12571 | 7908 ft | 227 kts | 35° |
| 2026-05-05 16:59 | -22.73339 | -43.11790 | 8649 ft | 235 kts | 19° |
| 2026-05-05 16:59 | -22.71703 | -43.11536 | 9391 ft | 244 kts | 354° |
| 2026-05-05 16:59 | -22.70059 | -43.12156 | 9900 ft | 267 kts | 327° |
| 2026-05-05 16:59 | -22.68466 | -43.13415 | 9996 ft | 299 kts | 321° |
| 2026-05-05 17:00 | -22.66740 | -43.14913 | 10006 ft | 336 kts | 320° |
| 2026-05-05 17:00 | -22.64845 | -43.16605 | 10011 ft | 369 kts | 320° |
| 2026-05-05 17:00 | -22.62799 | -43.18429 | 10017 ft | 395 kts | 320° |
| 2026-05-05 17:00 | -22.60670 | -43.20305 | 10017 ft | 404 kts | 321° |
| 2026-05-05 17:01 | -22.58471 | -43.22217 | 10013 ft | 406 kts | 321° |
| 2026-05-05 17:01 | -22.56407 | -43.24299 | 10016 ft | 405 kts | 308° |
| 2026-05-05 17:01 | -22.55008 | -43.26928 | 10019 ft | 405 kts | 290° |
| 2026-05-05 17:01 | -22.54468 | -43.29897 | 10009 ft | 403 kts | 270° |
| 2026-05-05 17:02 | -22.54821 | -43.32889 | 10010 ft | 401 kts | 255° |
| 2026-05-05 17:02 | -22.55514 | -43.35812 | 10011 ft | 401 kts | 254° |
| 2026-05-05 17:02 | -22.56206 | -43.38736 | 10012 ft | 401 kts | 254° |
| 2026-05-05 17:02 | -22.56895 | -43.41662 | 10013 ft | 401 kts | 255° |
| 2026-05-05 17:03 | -22.57580 | -43.44589 | 10009 ft | 401 kts | 255° |
| 2026-05-05 17:03 | -22.58256 | -43.47481 | 10016 ft | 401 kts | 255° |
| 2026-05-05 17:03 | -22.58943 | -43.50412 | 10013 ft | 400 kts | 255° |
| 2026-05-05 17:03 | -22.59625 | -43.53324 | 10012 ft | 400 kts | 254° |
| 2026-05-05 17:04 | -22.60306 | -43.56244 | 10018 ft | 400 kts | 255° |
| 2026-05-05 17:04 | -22.60986 | -43.59170 | 10018 ft | 400 kts | 255° |
| 2026-05-05 17:04 | -22.61664 | -43.62087 | 10014 ft | 399 kts | 255° |
| 2026-05-05 17:04 | -22.62343 | -43.65002 | 10011 ft | 400 kts | 255° |
| 2026-05-05 17:05 | -22.63026 | -43.67929 | 10006 ft | 400 kts | 255° |
| 2026-05-05 17:05 | -22.63706 | -43.70856 | 10004 ft | 400 kts | 255° |
| 2026-05-05 17:05 | -22.64387 | -43.73787 | 9999 ft | 400 kts | 255° |
| 2026-05-05 17:05 | -22.65056 | -43.76676 | 10002 ft | 400 kts | 255° |
| 2026-05-05 17:06 | -22.65730 | -43.79597 | 10093 ft | 401 kts | 255° |
| 2026-05-05 17:06 | -22.66543 | -43.82482 | 10131 ft | 400 kts | 245° |
| 2026-05-05 17:06 | -22.67971 | -43.84977 | 10012 ft | 379 kts | 228° |
| 2026-05-05 17:06 | -22.69873 | -43.86807 | 9853 ft | 356 kts | 212° |
| 2026-05-05 17:07 | -22.72023 | -43.87942 | 9701 ft | 335 kts | 197° |
| 2026-05-05 17:07 | -22.74242 | -43.88431 | 9543 ft | 318 kts | 184° |
| 2026-05-05 17:07 | -22.76397 | -43.88342 | 9388 ft | 304 kts | 170° |
| 2026-05-05 17:07 | -22.78402 | -43.87751 | 9233 ft | 291 kts | 158° |
| 2026-05-05 17:08 | -22.80155 | -43.86743 | 9074 ft | 280 kts | 146° |
| 2026-05-05 17:08 | -22.81617 | -43.85409 | 8903 ft | 271 kts | 134° |
| 2026-05-05 17:08 | -22.82846 | -43.83896 | 8732 ft | 264 kts | 131° |
| 2026-05-05 17:08 | -22.84040 | -43.82410 | 8558 ft | 259 kts | 132° |
| 2026-05-05 17:09 | -22.85211 | -43.80957 | 8385 ft | 253 kts | 132° |
| 2026-05-05 17:09 | -22.86348 | -43.79546 | 8213 ft | 251 kts | 132° |
| 2026-05-05 17:09 | -22.87499 | -43.78115 | 8042 ft | 250 kts | 132° |
| 2026-05-05 17:09 | -22.88640 | -43.76695 | 7872 ft | 250 kts | 132° |
| 2026-05-05 17:10 | -22.89784 | -43.75272 | 7700 ft | 249 kts | 131° |
| 2026-05-05 17:10 | -22.90922 | -43.73855 | 7532 ft | 249 kts | 132° |
| 2026-05-05 17:10 | -22.92058 | -43.72439 | 7362 ft | 248 kts | 132° |
| 2026-05-05 17:10 | -22.93192 | -43.71025 | 7195 ft | 248 kts | 131° |
| 2026-05-05 17:11 | -22.94322 | -43.69617 | 7034 ft | 247 kts | 133° |
| 2026-05-05 17:11 | -22.95488 | -43.68273 | 6866 ft | 247 kts | 135° |
| 2026-05-05 17:11 | -22.96700 | -43.66959 | 6700 ft | 246 kts | 136° |
| 2026-05-05 17:11 | -22.97921 | -43.65661 | 6536 ft | 246 kts | 136° |
| 2026-05-05 17:12 | -22.99147 | -43.64362 | 6364 ft | 246 kts | 136° |
| 2026-05-05 17:12 | -23.00360 | -43.63073 | 6481 ft | 244 kts | 136° |
| 2026-05-05 17:12 | -23.01576 | -43.61774 | 6717 ft | 246 kts | 137° |
| 2026-05-05 17:12 | -23.02802 | -43.60457 | 6923 ft | 253 kts | 137° |
| 2026-05-05 17:13 | -23.04137 | -43.59031 | 7003 ft | 280 kts | 137° |
| 2026-05-05 17:13 | -23.05544 | -43.57522 | 7015 ft | 286 kts | 136° |
| 2026-05-05 17:13 | -23.06961 | -43.55992 | 7031 ft | 288 kts | 136° |
| 2026-05-05 17:13 | -23.08377 | -43.54456 | 7034 ft | 288 kts | 137° |
| 2026-05-05 17:14 | -23.09797 | -43.52912 | 7034 ft | 289 kts | 136° |
| 2026-05-05 17:14 | -23.11203 | -43.51385 | 7032 ft | 288 kts | 136° |
| 2026-05-05 17:14 | -23.12624 | -43.49844 | 7035 ft | 288 kts | 136° |
| 2026-05-05 17:14 | -23.14055 | -43.48297 | 7036 ft | 288 kts | 137° |
| 2026-05-05 17:15 | -23.15471 | -43.46762 | 7034 ft | 287 kts | 137° |
| 2026-05-05 17:15 | -23.16885 | -43.45229 | 7034 ft | 288 kts | 136° |
| 2026-05-05 17:15 | -23.18310 | -43.43684 | 7036 ft | 288 kts | 137° |
| 2026-05-05 17:15 | -23.19709 | -43.42167 | 7038 ft | 289 kts | 136° |
| 2026-05-05 17:16 | -23.21138 | -43.40619 | 7037 ft | 291 kts | 137° |
| 2026-05-05 17:16 | -23.22596 | -43.39041 | 7036 ft | 299 kts | 136° |
| 2026-05-05 17:16 | -23.24072 | -43.37440 | 7033 ft | 300 kts | 136° |
| 2026-05-05 17:16 | -23.25551 | -43.35835 | 7036 ft | 299 kts | 136° |
| 2026-05-05 17:17 | -23.27024 | -43.34239 | 7037 ft | 299 kts | 136° |
| 2026-05-05 17:17 | -23.28442 | -43.32584 | 7035 ft | 301 kts | 127° |
| 2026-05-05 17:17 | -23.29362 | -43.30576 | 7036 ft | 303 kts | 107° |
| 2026-05-05 17:17 | -23.29535 | -43.28294 | 7035 ft | 306 kts | 85° |
| 2026-05-05 17:18 | -23.28946 | -43.26059 | 7043 ft | 309 kts | 71° |
| 2026-05-05 17:18 | -23.28194 | -43.23865 | 7040 ft | 309 kts | 70° |
| 2026-05-05 17:18 | -23.27425 | -43.21682 | 7041 ft | 308 kts | 70° |
| 2026-05-05 17:18 | -23.26655 | -43.19498 | 7041 ft | 311 kts | 71° |
| 2026-05-05 17:19 | -23.25852 | -43.17365 | 7033 ft | 296 kts | 62° |
| 2026-05-05 17:19 | -23.24761 | -43.15534 | 7036 ft | 281 kts | 57° |
| 2026-05-05 17:19 | -23.23695 | -43.13805 | 7038 ft | 272 kts | 58° |
| 2026-05-05 17:19 | -23.22650 | -43.12101 | 7038 ft | 270 kts | 57° |
| 2026-05-05 17:20 | -23.21612 | -43.10411 | 7038 ft | 268 kts | 57° |
| 2026-05-05 17:20 | -23.20588 | -43.08745 | 6856 ft | 267 kts | 58° |
| 2026-05-05 17:20 | -23.19553 | -43.07063 | 6739 ft | 268 kts | 57° |
| 2026-05-05 17:20 | -23.18521 | -43.05393 | 6621 ft | 263 kts | 57° |
| 2026-05-05 17:21 | -23.17500 | -43.03744 | 6500 ft | 262 kts | 57° |
| 2026-05-05 17:21 | -23.16483 | -43.02100 | 6378 ft | 262 kts | 57° |
| 2026-05-05 17:21 | -23.15808 | -43.01010 | 6289 ft | 261 kts | 56° |
| 2026-05-05 17:22 | -23.13781 | -42.97739 | 6053 ft | 260 kts | 57° |
| 2026-05-05 17:22 | -23.12772 | -42.96111 | 5925 ft | 260 kts | 56° |
| 2026-05-05 17:22 | -23.11438 | -42.93960 | 5762 ft | 259 kts | 56° |
| 2026-05-05 17:22 | -23.10759 | -42.92863 | 5681 ft | 258 kts | 56° |
| 2026-05-05 17:23 | -23.09755 | -42.91244 | 5568 ft | 258 kts | 56° |
| 2026-05-05 17:23 | -23.08756 | -42.89636 | 5533 ft | 256 kts | 56° |
| 2026-05-05 17:23 | -23.07758 | -42.88027 | 5535 ft | 257 kts | 56° |
| 2026-05-05 17:23 | -23.06742 | -42.86392 | 5540 ft | 274 kts | 56° |
| 2026-05-05 17:24 | -23.05640 | -42.84622 | 5531 ft | 287 kts | 56° |
| 2026-05-05 17:24 | -23.04516 | -42.82814 | 5532 ft | 289 kts | 56° |
| 2026-05-05 17:24 | -23.03394 | -42.81001 | 5533 ft | 290 kts | 57° |
| 2026-05-05 17:24 | -23.02395 | -42.79104 | 5531 ft | 289 kts | 57° |
| 2026-05-05 17:25 | -23.00960 | -42.77597 | 5532 ft | 289 kts | 30° |
| 2026-05-05 17:25 | -22.99731 | -42.77056 | 5531 ft | 289 kts | 12° |
| 2026-05-05 17:25 | -22.97110 | -42.77232 | 5198 ft | 283 kts | 337° |
| 2026-05-05 17:25 | -22.95488 | -42.78363 | 4838 ft | 281 kts | 319° |
| 2026-05-05 17:26 | -22.94049 | -42.79769 | 4620 ft | 273 kts | 311° |
| 2026-05-05 17:26 | -22.93197 | -42.81496 | 4497 ft | 262 kts | 283° |
| 2026-05-05 17:26 | -22.93143 | -42.83421 | 4368 ft | 253 kts | 264° |
| 2026-05-05 17:26 | -22.93339 | -42.85283 | 4234 ft | 244 kts | 263° |
| 2026-05-05 17:27 | -22.93559 | -42.87073 | 4126 ft | 234 kts | 263° |
| 2026-05-05 17:27 | -22.93464 | -42.88789 | 3973 ft | 226 kts | 286° |
| 2026-05-05 17:27 | -22.92874 | -42.90401 | 3596 ft | 231 kts | 294° |
| 2026-05-05 17:27 | -22.92239 | -42.92009 | 3261 ft | 232 kts | 294° |
| 2026-05-05 17:28 | -22.91600 | -42.93619 | 3056 ft | 259 kts | 294° |
| 2026-05-05 17:28 | -22.90821 | -42.95571 | 3025 ft | 309 kts | 294° |
| 2026-05-05 17:28 | -22.89914 | -42.97859 | 3020 ft | 348 kts | 294° |
| 2026-05-05 17:28 | -22.88921 | -43.00373 | 3017 ft | 371 kts | 293° |
| 2026-05-05 17:29 | -22.87891 | -43.02990 | 3197 ft | 374 kts | 293° |
| 2026-05-05 17:29 | -22.86913 | -43.05476 | 4067 ft | 358 kts | 293° |
| 2026-05-05 17:29 | -22.85950 | -43.07935 | 4679 ft | 354 kts | 292° |
| 2026-05-05 17:29 | -22.84870 | -43.10429 | 4310 ft | 378 kts | 299° |
| 2026-05-05 17:30 | -22.83497 | -43.12918 | 4204 ft | 386 kts | 303° |
| 2026-05-05 17:30 | -22.82007 | -43.15304 | 4253 ft | 363 kts | 307° |
| 2026-05-05 17:30 | -22.80344 | -43.17094 | 4557 ft | 314 kts | 327° |
| 2026-05-05 17:30 | -22.78444 | -43.17982 | 4346 ft | 291 kts | 345° |
| 2026-05-05 17:31 | -22.76513 | -43.18539 | 3941 ft | 278 kts | 339° |
| 2026-05-05 17:31 | -22.75035 | -43.19641 | 4073 ft | 243 kts | 307° |
| 2026-05-05 17:31 | -22.74637 | -43.21230 | 4173 ft | 209 kts | 257° |
| 2026-05-05 17:31 | -22.75403 | -43.22424 | 4031 ft | 193 kts | 214° |
| 2026-05-05 17:32 | -22.76629 | -43.22762 | 3835 ft | 180 kts | 174° |
| 2026-05-05 17:32 | -22.77778 | -43.22342 | 3653 ft | 172 kts | 151° |
| 2026-05-05 17:32 | -22.78754 | -43.21671 | 3583 ft | 162 kts | 147° |
| 2026-05-05 17:32 | -22.79692 | -43.21001 | 3490 ft | 160 kts | 147° |
| 2026-05-05 17:33 | -22.80573 | -43.20266 | 3345 ft | 160 kts | 140° |
| 2026-05-05 17:33 | -22.81396 | -43.19460 | 3163 ft | 157 kts | 137° |
| 2026-05-05 17:33 | -22.82189 | -43.18666 | 2911 ft | 157 kts | 138° |
| 2026-05-05 17:33 | -22.83057 | -43.17973 | 2673 ft | 155 kts | 148° |
| 2026-05-05 17:34 | -22.83990 | -43.17397 | 2370 ft | 153 kts | 152° |
| 2026-05-05 17:34 | -22.84953 | -43.16924 | 2089 ft | 151 kts | 158° |
| 2026-05-05 17:34 | -22.85968 | -43.16640 | 1764 ft | 149 kts | 168° |
| 2026-05-05 17:34 | -22.87006 | -43.16511 | 1278 ft | 150 kts | 174° |
| 2026-05-05 17:35 | -22.88038 | -43.16456 | 849 ft | 147 kts | 178° |
| 2026-05-05 17:35 | -22.89047 | -43.16436 | 458 ft | 142 kts | 176° |
| 2026-05-05 17:35 | -22.90011 | -43.16347 | 177 ft | 136 kts | 175° |
| 2026-05-05 17:35 | -22.90913 | -43.16307 | 24 ft | 118 kts | 177° |
| 2026-05-05 17:36 | -22.91382 | -43.16282 | 18 ft | 24 kts | 177° |
| 2026-05-05 17:36 | -22.91485 | -43.16275 | 18 ft | 9 kts | 176° |
| 2026-05-05 17:36 | -22.91502 | -43.16274 | 20 ft | 2 kts | 176° |
| 2026-05-05 17:36 | -22.91529 | -43.16272 | 18 ft | 6 kts | 176° |
| 2026-05-05 17:37 | -22.91579 | -43.16273 | 18 ft | 9 kts | 189° |
| 2026-05-05 17:37 | -22.91580 | -43.16331 | 19 ft | 10 kts | 301° |